sensor_id;sensor_type;location;lat;lon;timestamp;P1;durP1;ratioP1;P2;durP2;ratioP2
10851;SDS011;5479;52.046;6.314;2023-06-04T00:00:18;3.17;;;1.70;;
10851;SDS011;5479;52.046;6.314;2023-06-04T00:02:45;5.00;;;2.10;;
10851;SDS011;5479;52.046;6.314;2023-06-04T00:05:15;6.03;;;2.00;;
10851;SDS011;5479;52.046;6.314;2023-06-04T00:07:43;7.47;;;2.23;;
10851;SDS011;5479;52.046;6.314;2023-06-04T00:10:11;3.77;;;1.93;;
10851;SDS011;5479;52.046;6.314;2023-06-04T00:12:39;6.30;;;2.00;;
10851;SDS011;5479;52.046;6.314;2023-06-04T00:15:28;4.13;;;1.90;;
10851;SDS011;5479;52.046;6.314;2023-06-04T00:17:56;2.53;;;1.90;;
10851;SDS011;5479;52.046;6.314;2023-06-04T00:20:24;4.43;;;1.90;;
10851;SDS011;5479;52.046;6.314;2023-06-04T00:22:52;3.93;;;2.00;;
10851;SDS011;5479;52.046;6.314;2023-06-04T00:25:20;3.37;;;1.97;;
10851;SDS011;5479;52.046;6.314;2023-06-04T00:27:48;4.77;;;1.90;;
10851;SDS011;5479;52.046;6.314;2023-06-04T00:30:16;4.20;;;1.80;;
10851;SDS011;5479;52.046;6.314;2023-06-04T00:32:46;3.23;;;2.00;;
10851;SDS011;5479;52.046;6.314;2023-06-04T00:35:14;4.23;;;2.00;;
10851;SDS011;5479;52.046;6.314;2023-06-04T00:37:42;3.80;;;2.03;;
10851;SDS011;5479;52.046;6.314;2023-06-04T00:40:11;3.30;;;1.90;;
10851;SDS011;5479;52.046;6.314;2023-06-04T00:42:39;3.13;;;2.10;;
10851;SDS011;5479;52.046;6.314;2023-06-04T00:45:08;4.17;;;2.10;;
10851;SDS011;5479;52.046;6.314;2023-06-04T00:47:36;4.73;;;2.03;;
10851;SDS011;5479;52.046;6.314;2023-06-04T00:50:06;4.37;;;2.00;;
10851;SDS011;5479;52.046;6.314;2023-06-04T00:52:36;4.30;;;2.00;;
10851;SDS011;5479;52.046;6.314;2023-06-04T00:55:04;4.30;;;2.40;;
10851;SDS011;5479;52.046;6.314;2023-06-04T00:57:33;3.83;;;1.93;;
10851;SDS011;5479;52.046;6.314;2023-06-04T01:00:02;3.90;;;1.90;;
10851;SDS011;5479;52.046;6.314;2023-06-04T01:02:32;3.63;;;1.87;;
10851;SDS011;5479;52.046;6.314;2023-06-04T01:05:02;4.07;;;1.97;;
10851;SDS011;5479;52.046;6.314;2023-06-04T01:07:39;4.50;;;2.53;;
10851;SDS011;5479;52.046;6.314;2023-06-04T01:10:12;3.27;;;2.00;;
10851;SDS011;5479;52.046;6.314;2023-06-04T01:12:40;4.00;;;2.10;;
10851;SDS011;5479;52.046;6.314;2023-06-04T01:15:08;4.30;;;2.30;;
10851;SDS011;5479;52.046;6.314;2023-06-04T01:17:38;3.37;;;1.93;;
10851;SDS011;5479;52.046;6.314;2023-06-04T01:20:13;3.57;;;2.00;;
10851;SDS011;5479;52.046;6.314;2023-06-04T01:22:50;4.07;;;2.10;;
10851;SDS011;5479;52.046;6.314;2023-06-04T01:25:41;5.23;;;2.23;;
10851;SDS011;5479;52.046;6.314;2023-06-04T01:28:12;3.07;;;1.90;;
10851;SDS011;5479;52.046;6.314;2023-06-04T01:30:44;2.97;;;1.83;;
10851;SDS011;5479;52.046;6.314;2023-06-04T01:33:14;5.40;;;2.23;;
10851;SDS011;5479;52.046;6.314;2023-06-04T01:35:45;4.63;;;2.47;;
10851;SDS011;5479;52.046;6.314;2023-06-04T01:38:13;4.23;;;1.90;;
10851;SDS011;5479;52.046;6.314;2023-06-04T01:40:42;3.63;;;2.00;;
10851;SDS011;5479;52.046;6.314;2023-06-04T01:43:10;5.00;;;2.10;;
10851;SDS011;5479;52.046;6.314;2023-06-04T01:45:38;4.93;;;2.37;;
10851;SDS011;5479;52.046;6.314;2023-06-04T01:48:06;3.87;;;2.10;;
10851;SDS011;5479;52.046;6.314;2023-06-04T01:50:34;4.07;;;2.20;;
10851;SDS011;5479;52.046;6.314;2023-06-04T01:53:04;4.40;;;2.13;;
10851;SDS011;5479;52.046;6.314;2023-06-04T01:55:32;3.90;;;2.20;;
10851;SDS011;5479;52.046;6.314;2023-06-04T01:58:00;4.77;;;2.33;;
10851;SDS011;5479;52.046;6.314;2023-06-04T02:00:28;2.87;;;1.97;;
10851;SDS011;5479;52.046;6.314;2023-06-04T02:02:57;3.97;;;2.00;;
10851;SDS011;5479;52.046;6.314;2023-06-04T02:05:25;4.53;;;2.27;;
10851;SDS011;5479;52.046;6.314;2023-06-04T02:07:53;2.83;;;1.83;;
10851;SDS011;5479;52.046;6.314;2023-06-04T02:10:25;3.10;;;2.00;;
10851;SDS011;5479;52.046;6.314;2023-06-04T02:12:53;3.80;;;2.00;;
10851;SDS011;5479;52.046;6.314;2023-06-04T02:15:22;5.63;;;2.13;;
10851;SDS011;5479;52.046;6.314;2023-06-04T02:17:53;4.20;;;2.07;;
10851;SDS011;5479;52.046;6.314;2023-06-04T02:20:25;4.70;;;2.27;;
10851;SDS011;5479;52.046;6.314;2023-06-04T02:22:54;4.03;;;2.10;;
10851;SDS011;5479;52.046;6.314;2023-06-04T02:25:22;5.37;;;2.10;;
10851;SDS011;5479;52.046;6.314;2023-06-04T02:27:52;4.03;;;2.33;;
10851;SDS011;5479;52.046;6.314;2023-06-04T02:30:18;4.00;;;2.40;;
10851;SDS011;5479;52.046;6.314;2023-06-04T02:32:46;5.47;;;2.37;;
10851;SDS011;5479;52.046;6.314;2023-06-04T02:35:17;4.10;;;2.00;;
10851;SDS011;5479;52.046;6.314;2023-06-04T02:37:45;4.13;;;2.07;;
10851;SDS011;5479;52.046;6.314;2023-06-04T02:40:13;4.47;;;2.03;;
10851;SDS011;5479;52.046;6.314;2023-06-04T02:42:41;4.97;;;2.60;;
10851;SDS011;5479;52.046;6.314;2023-06-04T02:45:11;5.27;;;2.40;;
10851;SDS011;5479;52.046;6.314;2023-06-04T02:47:39;5.87;;;2.37;;
10851;SDS011;5479;52.046;6.314;2023-06-04T02:50:07;5.63;;;2.50;;
10851;SDS011;5479;52.046;6.314;2023-06-04T02:52:37;3.90;;;2.03;;
10851;SDS011;5479;52.046;6.314;2023-06-04T02:55:06;4.27;;;2.20;;
10851;SDS011;5479;52.046;6.314;2023-06-04T02:57:39;5.37;;;2.40;;
10851;SDS011;5479;52.046;6.314;2023-06-04T03:00:09;3.13;;;2.07;;
10851;SDS011;5479;52.046;6.314;2023-06-04T03:02:40;3.70;;;2.20;;
10851;SDS011;5479;52.046;6.314;2023-06-04T03:05:10;3.97;;;2.20;;
10851;SDS011;5479;52.046;6.314;2023-06-04T03:07:40;5.37;;;2.20;;
10851;SDS011;5479;52.046;6.314;2023-06-04T03:10:11;3.57;;;2.30;;
10851;SDS011;5479;52.046;6.314;2023-06-04T03:12:40;4.93;;;2.40;;
10851;SDS011;5479;52.046;6.314;2023-06-04T03:15:11;4.00;;;2.30;;
10851;SDS011;5479;52.046;6.314;2023-06-04T03:17:40;3.50;;;2.07;;
10851;SDS011;5479;52.046;6.314;2023-06-04T03:20:08;4.83;;;2.43;;
10851;SDS011;5479;52.046;6.314;2023-06-04T03:22:38;7.67;;;2.33;;
10851;SDS011;5479;52.046;6.314;2023-06-04T03:25:07;4.40;;;2.33;;
10851;SDS011;5479;52.046;6.314;2023-06-04T03:27:35;5.60;;;2.33;;
10851;SDS011;5479;52.046;6.314;2023-06-04T03:30:03;4.37;;;2.27;;
10851;SDS011;5479;52.046;6.314;2023-06-04T03:32:34;5.43;;;2.50;;
10851;SDS011;5479;52.046;6.314;2023-06-04T03:35:03;4.83;;;2.60;;
10851;SDS011;5479;52.046;6.314;2023-06-04T03:37:31;4.80;;;2.60;;
10851;SDS011;5479;52.046;6.314;2023-06-04T03:40:00;4.33;;;2.60;;
10851;SDS011;5479;52.046;6.314;2023-06-04T03:42:29;4.63;;;2.30;;
10851;SDS011;5479;52.046;6.314;2023-06-04T03:44:57;5.60;;;2.40;;
10851;SDS011;5479;52.046;6.314;2023-06-04T03:47:25;4.97;;;2.53;;
10851;SDS011;5479;52.046;6.314;2023-06-04T03:49:53;4.77;;;2.40;;
10851;SDS011;5479;52.046;6.314;2023-06-04T03:52:22;5.40;;;2.30;;
10851;SDS011;5479;52.046;6.314;2023-06-04T03:54:49;4.97;;;2.40;;
10851;SDS011;5479;52.046;6.314;2023-06-04T03:57:17;5.30;;;2.50;;
10851;SDS011;5479;52.046;6.314;2023-06-04T03:59:45;6.83;;;2.47;;
10851;SDS011;5479;52.046;6.314;2023-06-04T04:02:13;4.73;;;2.90;;
10851;SDS011;5479;52.046;6.314;2023-06-04T04:04:41;5.83;;;2.87;;
10851;SDS011;5479;52.046;6.314;2023-06-04T04:07:12;4.43;;;2.43;;
10851;SDS011;5479;52.046;6.314;2023-06-04T04:09:40;6.00;;;2.70;;
10851;SDS011;5479;52.046;6.314;2023-06-04T04:12:08;3.77;;;2.37;;
10851;SDS011;5479;52.046;6.314;2023-06-04T04:14:36;4.60;;;2.60;;
10851;SDS011;5479;52.046;6.314;2023-06-04T04:17:04;5.00;;;2.50;;
10851;SDS011;5479;52.046;6.314;2023-06-04T04:19:32;7.17;;;2.83;;
10851;SDS011;5479;52.046;6.314;2023-06-04T04:22:00;5.37;;;2.83;;
10851;SDS011;5479;52.046;6.314;2023-06-04T04:24:29;5.03;;;2.60;;
10851;SDS011;5479;52.046;6.314;2023-06-04T04:26:57;5.30;;;2.87;;
10851;SDS011;5479;52.046;6.314;2023-06-04T04:29:46;6.47;;;2.83;;
10851;SDS011;5479;52.046;6.314;2023-06-04T04:32:14;5.67;;;3.20;;
10851;SDS011;5479;52.046;6.314;2023-06-04T04:34:50;5.67;;;3.20;;
10851;SDS011;5479;52.046;6.314;2023-06-04T04:37:19;5.00;;;2.67;;
10851;SDS011;5479;52.046;6.314;2023-06-04T04:39:50;5.10;;;2.80;;
10851;SDS011;5479;52.046;6.314;2023-06-04T04:42:19;6.07;;;3.00;;
10851;SDS011;5479;52.046;6.314;2023-06-04T04:44:47;5.13;;;2.70;;
10851;SDS011;5479;52.046;6.314;2023-06-04T04:47:16;5.90;;;2.83;;
10851;SDS011;5479;52.046;6.314;2023-06-04T04:49:43;4.27;;;2.83;;
10851;SDS011;5479;52.046;6.314;2023-06-04T04:52:11;6.60;;;2.87;;
10851;SDS011;5479;52.046;6.314;2023-06-04T04:54:39;5.47;;;2.97;;
10851;SDS011;5479;52.046;6.314;2023-06-04T04:57:10;7.30;;;2.90;;
10851;SDS011;5479;52.046;6.314;2023-06-04T04:59:39;5.90;;;3.20;;
10851;SDS011;5479;52.046;6.314;2023-06-04T05:02:08;5.23;;;2.60;;
10851;SDS011;5479;52.046;6.314;2023-06-04T05:04:36;5.27;;;2.80;;
10851;SDS011;5479;52.046;6.314;2023-06-04T05:07:05;5.67;;;3.00;;
10851;SDS011;5479;52.046;6.314;2023-06-04T05:09:37;6.53;;;3.20;;
10851;SDS011;5479;52.046;6.314;2023-06-04T05:12:05;4.93;;;3.10;;
10851;SDS011;5479;52.046;6.314;2023-06-04T05:14:36;6.00;;;3.03;;
10851;SDS011;5479;52.046;6.314;2023-06-04T05:17:04;5.30;;;3.00;;
10851;SDS011;5479;52.046;6.314;2023-06-04T05:19:32;7.40;;;3.10;;
10851;SDS011;5479;52.046;6.314;2023-06-04T05:22:00;6.03;;;3.43;;
10851;SDS011;5479;52.046;6.314;2023-06-04T05:24:30;5.57;;;3.33;;
10851;SDS011;5479;52.046;6.314;2023-06-04T05:26:59;7.93;;;3.60;;
10851;SDS011;5479;52.046;6.314;2023-06-04T05:29:26;6.43;;;3.33;;
10851;SDS011;5479;52.046;6.314;2023-06-04T05:31:56;7.53;;;3.80;;
10851;SDS011;5479;52.046;6.314;2023-06-04T05:34:24;6.67;;;3.20;;
10851;SDS011;5479;52.046;6.314;2023-06-04T05:36:53;6.20;;;3.00;;
10851;SDS011;5479;52.046;6.314;2023-06-04T05:39:22;7.80;;;3.30;;
10851;SDS011;5479;52.046;6.314;2023-06-04T05:41:51;5.50;;;3.27;;
10851;SDS011;5479;52.046;6.314;2023-06-04T05:44:19;6.70;;;3.10;;
10851;SDS011;5479;52.046;6.314;2023-06-04T05:46:47;8.60;;;3.50;;
10851;SDS011;5479;52.046;6.314;2023-06-04T05:49:17;6.67;;;3.60;;
10851;SDS011;5479;52.046;6.314;2023-06-04T05:51:46;9.83;;;3.37;;
10851;SDS011;5479;52.046;6.314;2023-06-04T05:54:14;6.23;;;3.40;;
10851;SDS011;5479;52.046;6.314;2023-06-04T05:56:42;5.83;;;3.20;;
10851;SDS011;5479;52.046;6.314;2023-06-04T05:59:10;7.40;;;3.53;;
10851;SDS011;5479;52.046;6.314;2023-06-04T06:01:39;8.63;;;3.60;;
10851;SDS011;5479;52.046;6.314;2023-06-04T06:04:06;7.40;;;3.70;;
10851;SDS011;5479;52.046;6.314;2023-06-04T06:06:37;5.30;;;3.20;;
10851;SDS011;5479;52.046;6.314;2023-06-04T06:09:05;5.73;;;3.10;;
10851;SDS011;5479;52.046;6.314;2023-06-04T06:11:35;6.97;;;3.60;;
10851;SDS011;5479;52.046;6.314;2023-06-04T06:14:03;6.73;;;3.20;;
10851;SDS011;5479;52.046;6.314;2023-06-04T06:16:31;6.30;;;3.40;;
10851;SDS011;5479;52.046;6.314;2023-06-04T06:19:00;6.67;;;3.63;;
10851;SDS011;5479;52.046;6.314;2023-06-04T06:21:28;7.23;;;3.40;;
10851;SDS011;5479;52.046;6.314;2023-06-04T06:23:57;7.57;;;3.67;;
10851;SDS011;5479;52.046;6.314;2023-06-04T06:26:25;5.97;;;3.30;;
10851;SDS011;5479;52.046;6.314;2023-06-04T06:28:53;5.83;;;3.37;;
10851;SDS011;5479;52.046;6.314;2023-06-04T06:31:22;7.23;;;3.50;;
10851;SDS011;5479;52.046;6.314;2023-06-04T06:33:50;5.57;;;3.13;;
10851;SDS011;5479;52.046;6.314;2023-06-04T06:36:18;4.33;;;2.80;;
10851;SDS011;5479;52.046;6.314;2023-06-04T06:38:45;6.40;;;2.83;;
10851;SDS011;5479;52.046;6.314;2023-06-04T06:41:15;6.30;;;3.33;;
10851;SDS011;5479;52.046;6.314;2023-06-04T06:43:45;6.43;;;3.10;;
10851;SDS011;5479;52.046;6.314;2023-06-04T06:46:13;6.47;;;3.17;;
10851;SDS011;5479;52.046;6.314;2023-06-04T06:48:41;5.43;;;2.95;;
10851;SDS011;5479;52.046;6.314;2023-06-04T06:51:11;5.82;;;2.97;;
10851;SDS011;5479;52.046;6.314;2023-06-04T06:53:39;6.85;;;3.08;;
10851;SDS011;5479;52.046;6.314;2023-06-04T06:56:07;6.30;;;3.30;;
10851;SDS011;5479;52.046;6.314;2023-06-04T06:58:37;6.28;;;3.13;;
10851;SDS011;5479;52.046;6.314;2023-06-04T07:01:05;7.03;;;3.03;;
10851;SDS011;5479;52.046;6.314;2023-06-04T07:03:34;6.32;;;3.30;;
10851;SDS011;5479;52.046;6.314;2023-06-04T07:06:02;7.88;;;3.30;;
10851;SDS011;5479;52.046;6.314;2023-06-04T07:08:31;5.47;;;3.28;;
10851;SDS011;5479;52.046;6.314;2023-06-04T07:11:00;7.13;;;3.40;;
10851;SDS011;5479;52.046;6.314;2023-06-04T07:13:30;5.30;;;3.03;;
10851;SDS011;5479;52.046;6.314;2023-06-04T07:16:03;4.25;;;2.72;;
10851;SDS011;5479;52.046;6.314;2023-06-04T07:18:31;5.00;;;3.15;;
10851;SDS011;5479;52.046;6.314;2023-06-04T07:21:00;7.03;;;3.40;;
10851;SDS011;5479;52.046;6.314;2023-06-04T07:23:28;4.63;;;3.13;;
10851;SDS011;5479;52.046;6.314;2023-06-04T07:25:57;4.85;;;3.47;;
10851;SDS011;5479;52.046;6.314;2023-06-04T07:28:25;6.75;;;3.30;;
10851;SDS011;5479;52.046;6.314;2023-06-04T07:30:53;6.38;;;3.40;;
10851;SDS011;5479;52.046;6.314;2023-06-04T07:33:22;6.50;;;3.10;;
10851;SDS011;5479;52.046;6.314;2023-06-04T07:35:50;4.90;;;3.10;;
10851;SDS011;5479;52.046;6.314;2023-06-04T07:38:19;7.00;;;3.33;;
10851;SDS011;5479;52.046;6.314;2023-06-04T07:40:46;4.90;;;2.97;;
10851;SDS011;5479;52.046;6.314;2023-06-04T07:43:22;5.78;;;3.20;;
10851;SDS011;5479;52.046;6.314;2023-06-04T07:45:51;5.88;;;3.15;;
10851;SDS011;5479;52.046;6.314;2023-06-04T07:48:19;5.13;;;3.20;;
10851;SDS011;5479;52.046;6.314;2023-06-04T07:50:48;5.57;;;2.83;;
10851;SDS011;5479;52.046;6.314;2023-06-04T07:53:16;6.03;;;2.88;;
10851;SDS011;5479;52.046;6.314;2023-06-04T07:55:44;5.05;;;3.00;;
10851;SDS011;5479;52.046;6.314;2023-06-04T07:58:12;4.80;;;2.80;;
10851;SDS011;5479;52.046;6.314;2023-06-04T08:00:40;5.93;;;3.10;;
10851;SDS011;5479;52.046;6.314;2023-06-04T08:03:08;8.00;;;2.90;;
10851;SDS011;5479;52.046;6.314;2023-06-04T08:05:36;6.07;;;2.85;;
10851;SDS011;5479;52.046;6.314;2023-06-04T08:08:06;5.00;;;3.25;;
10851;SDS011;5479;52.046;6.314;2023-06-04T08:10:36;5.97;;;3.03;;
10851;SDS011;5479;52.046;6.314;2023-06-04T08:13:04;6.15;;;3.10;;
10851;SDS011;5479;52.046;6.314;2023-06-04T08:15:33;6.40;;;3.10;;
10851;SDS011;5479;52.046;6.314;2023-06-04T08:18:01;6.15;;;2.70;;
10851;SDS011;5479;52.046;6.314;2023-06-04T08:20:29;5.82;;;3.03;;
10851;SDS011;5479;52.046;6.314;2023-06-04T08:22:57;7.00;;;3.22;;
10851;SDS011;5479;52.046;6.314;2023-06-04T08:25:28;6.10;;;2.60;;
10851;SDS011;5479;52.046;6.314;2023-06-04T08:27:56;5.03;;;2.78;;
10851;SDS011;5479;52.046;6.314;2023-06-04T08:30:24;7.25;;;3.25;;
10851;SDS011;5479;52.046;6.314;2023-06-04T08:32:53;7.72;;;2.70;;
10851;SDS011;5479;52.046;6.314;2023-06-04T08:35:23;4.10;;;2.33;;
10851;SDS011;5479;52.046;6.314;2023-06-04T08:37:51;3.90;;;2.40;;
10851;SDS011;5479;52.046;6.314;2023-06-04T08:40:19;6.38;;;2.38;;
10851;SDS011;5479;52.046;6.314;2023-06-04T08:42:50;4.63;;;2.53;;
10851;SDS011;5479;52.046;6.314;2023-06-04T08:45:21;5.63;;;2.50;;
10851;SDS011;5479;52.046;6.314;2023-06-04T08:47:52;3.67;;;2.28;;
10851;SDS011;5479;52.046;6.314;2023-06-04T08:50:23;6.10;;;2.45;;
10851;SDS011;5479;52.046;6.314;2023-06-04T08:52:52;5.20;;;2.75;;
10851;SDS011;5479;52.046;6.314;2023-06-04T08:55:22;5.03;;;2.20;;
10851;SDS011;5479;52.046;6.314;2023-06-04T08:57:52;5.05;;;2.40;;
10851;SDS011;5479;52.046;6.314;2023-06-04T09:00:20;4.05;;;2.35;;
10851;SDS011;5479;52.046;6.314;2023-06-04T09:02:49;3.55;;;2.00;;
10851;SDS011;5479;52.046;6.314;2023-06-04T09:05:18;4.28;;;2.22;;
10851;SDS011;5479;52.046;6.314;2023-06-04T09:07:47;3.50;;;2.28;;
10851;SDS011;5479;52.046;6.314;2023-06-04T09:10:19;5.60;;;2.08;;
10851;SDS011;5479;52.046;6.314;2023-06-04T09:12:52;5.70;;;2.15;;
10851;SDS011;5479;52.046;6.314;2023-06-04T09:15:24;3.70;;;1.92;;
10851;SDS011;5479;52.046;6.314;2023-06-04T09:17:52;4.38;;;2.03;;
10851;SDS011;5479;52.046;6.314;2023-06-04T09:20:21;4.35;;;2.10;;
10851;SDS011;5479;52.046;6.314;2023-06-04T09:22:51;4.22;;;1.95;;
10851;SDS011;5479;52.046;6.314;2023-06-04T09:25:20;3.80;;;2.00;;
10851;SDS011;5479;52.046;6.314;2023-06-04T09:27:48;3.50;;;1.90;;
10851;SDS011;5479;52.046;6.314;2023-06-04T09:30:18;4.55;;;2.05;;
10851;SDS011;5479;52.046;6.314;2023-06-04T09:32:48;3.47;;;1.80;;
10851;SDS011;5479;52.046;6.314;2023-06-04T09:35:19;5.63;;;1.88;;
10851;SDS011;5479;52.046;6.314;2023-06-04T09:37:53;3.45;;;1.90;;
10851;SDS011;5479;52.046;6.314;2023-06-04T09:40:34;4.82;;;1.95;;
10851;SDS011;5479;52.046;6.314;2023-06-04T09:43:06;3.45;;;2.00;;
10851;SDS011;5479;52.046;6.314;2023-06-04T09:45:35;3.22;;;1.70;;
10851;SDS011;5479;52.046;6.314;2023-06-04T09:48:03;4.57;;;1.90;;
10851;SDS011;5479;52.046;6.314;2023-06-04T09:50:33;2.22;;;1.63;;
10851;SDS011;5479;52.046;6.314;2023-06-04T09:53:12;3.00;;;1.63;;
10851;SDS011;5479;52.046;6.314;2023-06-04T09:55:40;1.88;;;1.45;;
10851;SDS011;5479;52.046;6.314;2023-06-04T09:58:11;3.30;;;1.60;;
10851;SDS011;5479;52.046;6.314;2023-06-04T10:00:40;4.13;;;1.55;;
10851;SDS011;5479;52.046;6.314;2023-06-04T10:03:09;2.75;;;1.80;;
10851;SDS011;5479;52.046;6.314;2023-06-04T10:05:41;4.15;;;1.77;;
10851;SDS011;5479;52.046;6.314;2023-06-04T10:08:10;4.63;;;1.83;;
10851;SDS011;5479;52.046;6.314;2023-06-04T10:10:43;3.42;;;1.75;;
10851;SDS011;5479;52.046;6.314;2023-06-04T10:13:14;3.17;;;2.00;;
10851;SDS011;5479;52.046;6.314;2023-06-04T10:15:47;5.22;;;2.05;;
10851;SDS011;5479;52.046;6.314;2023-06-04T10:18:16;2.85;;;1.75;;
10851;SDS011;5479;52.046;6.314;2023-06-04T10:20:45;2.95;;;1.83;;
10851;SDS011;5479;52.046;6.314;2023-06-04T10:23:13;4.85;;;1.77;;
10851;SDS011;5479;52.046;6.314;2023-06-04T10:25:44;3.72;;;1.77;;
10851;SDS011;5479;52.046;6.314;2023-06-04T10:28:14;4.60;;;2.00;;
10851;SDS011;5479;52.046;6.314;2023-06-04T10:30:43;3.03;;;1.70;;
10851;SDS011;5479;52.046;6.314;2023-06-04T10:33:12;5.63;;;2.20;;
10851;SDS011;5479;52.046;6.314;2023-06-04T10:35:43;3.85;;;1.90;;
10851;SDS011;5479;52.046;6.314;2023-06-04T10:38:12;4.45;;;1.85;;
10851;SDS011;5479;52.046;6.314;2023-06-04T10:40:42;5.05;;;2.00;;
10851;SDS011;5479;52.046;6.314;2023-06-04T10:43:11;3.35;;;1.70;;
10851;SDS011;5479;52.046;6.314;2023-06-04T10:45:42;3.50;;;1.92;;
10851;SDS011;5479;52.046;6.314;2023-06-04T10:48:12;5.15;;;2.20;;
10851;SDS011;5479;52.046;6.314;2023-06-04T10:50:50;5.80;;;2.22;;
10851;SDS011;5479;52.046;6.314;2023-06-04T10:53:19;3.70;;;2.00;;
10851;SDS011;5479;52.046;6.314;2023-06-04T10:55:48;4.65;;;1.90;;
10851;SDS011;5479;52.046;6.314;2023-06-04T10:58:17;4.50;;;2.10;;
10851;SDS011;5479;52.046;6.314;2023-06-04T11:00:46;3.63;;;2.10;;
10851;SDS011;5479;52.046;6.314;2023-06-04T11:03:17;4.25;;;2.00;;
10851;SDS011;5479;52.046;6.314;2023-06-04T11:05:46;3.63;;;1.90;;
10851;SDS011;5479;52.046;6.314;2023-06-04T11:08:25;4.28;;;2.22;;
10851;SDS011;5479;52.046;6.314;2023-06-04T11:10:55;2.50;;;1.70;;
10851;SDS011;5479;52.046;6.314;2023-06-04T11:13:23;5.43;;;2.30;;
10851;SDS011;5479;52.046;6.314;2023-06-04T11:15:52;4.00;;;1.95;;
10851;SDS011;5479;52.046;6.314;2023-06-04T11:18:22;6.03;;;2.33;;
10851;SDS011;5479;52.046;6.314;2023-06-04T11:20:58;4.28;;;2.13;;
10851;SDS011;5479;52.046;6.314;2023-06-04T11:23:28;5.07;;;2.38;;
10851;SDS011;5479;52.046;6.314;2023-06-04T11:25:56;5.53;;;2.33;;
10851;SDS011;5479;52.046;6.314;2023-06-04T11:28:26;2.90;;;2.08;;
10851;SDS011;5479;52.046;6.314;2023-06-04T11:30:58;4.05;;;1.88;;
10851;SDS011;5479;52.046;6.314;2023-06-04T11:33:30;2.75;;;1.90;;
10851;SDS011;5479;52.046;6.314;2023-06-04T11:36:02;5.75;;;2.20;;
10851;SDS011;5479;52.046;6.314;2023-06-04T11:38:30;3.67;;;2.00;;
10851;SDS011;5479;52.046;6.314;2023-06-04T11:40:59;3.75;;;2.00;;
10851;SDS011;5479;52.046;6.314;2023-06-04T11:43:32;3.83;;;1.90;;
10851;SDS011;5479;52.046;6.314;2023-06-04T11:46:05;5.88;;;2.47;;
10851;SDS011;5479;52.046;6.314;2023-06-04T11:48:38;3.28;;;2.13;;
10851;SDS011;5479;52.046;6.314;2023-06-04T11:51:06;3.70;;;1.80;;
10851;SDS011;5479;52.046;6.314;2023-06-04T11:53:36;2.97;;;1.83;;
10851;SDS011;5479;52.046;6.314;2023-06-04T11:56:04;6.57;;;2.20;;
10851;SDS011;5479;52.046;6.314;2023-06-04T11:58:33;3.53;;;2.00;;
10851;SDS011;5479;52.046;6.314;2023-06-04T12:01:02;4.88;;;2.00;;
10851;SDS011;5479;52.046;6.314;2023-06-04T12:06:10;3.42;;;2.05;;
10851;SDS011;5479;52.046;6.314;2023-06-04T12:08:48;5.20;;;2.10;;
10851;SDS011;5479;52.046;6.314;2023-06-04T12:11:24;3.80;;;1.90;;
10851;SDS011;5479;52.046;6.314;2023-06-04T12:13:54;3.90;;;2.08;;
10851;SDS011;5479;52.046;6.314;2023-06-04T12:16:23;3.88;;;2.00;;
10851;SDS011;5479;52.046;6.314;2023-06-04T12:19:03;3.03;;;1.90;;
10851;SDS011;5479;52.046;6.314;2023-06-04T12:21:37;3.55;;;1.85;;
10851;SDS011;5479;52.046;6.314;2023-06-04T12:24:09;5.55;;;2.10;;
10851;SDS011;5479;52.046;6.314;2023-06-04T12:26:40;4.97;;;2.00;;
10851;SDS011;5479;52.046;6.314;2023-06-04T12:29:10;4.28;;;2.28;;
10851;SDS011;5479;52.046;6.314;2023-06-04T12:31:39;3.60;;;2.00;;
10851;SDS011;5479;52.046;6.314;2023-06-04T12:34:08;4.40;;;2.17;;
10851;SDS011;5479;52.046;6.314;2023-06-04T12:36:39;2.55;;;1.88;;
10851;SDS011;5479;52.046;6.314;2023-06-04T12:39:07;5.20;;;2.15;;
10851;SDS011;5479;52.046;6.314;2023-06-04T12:41:35;3.67;;;2.00;;
10851;SDS011;5479;52.046;6.314;2023-06-04T12:44:03;3.45;;;2.00;;
10851;SDS011;5479;52.046;6.314;2023-06-04T12:46:32;3.58;;;2.22;;
10851;SDS011;5479;52.046;6.314;2023-06-04T12:48:59;4.30;;;2.10;;
10851;SDS011;5479;52.046;6.314;2023-06-04T12:51:27;3.65;;;1.90;;
10851;SDS011;5479;52.046;6.314;2023-06-04T12:53:57;3.17;;;2.17;;
10851;SDS011;5479;52.046;6.314;2023-06-04T12:56:26;5.10;;;2.17;;
10851;SDS011;5479;52.046;6.314;2023-06-04T12:58:54;2.53;;;1.90;;
10851;SDS011;5479;52.046;6.314;2023-06-04T13:01:22;3.90;;;2.40;;
10851;SDS011;5479;52.046;6.314;2023-06-04T13:03:53;4.80;;;2.20;;
10851;SDS011;5479;52.046;6.314;2023-06-04T13:06:21;3.13;;;2.20;;
10851;SDS011;5479;52.046;6.314;2023-06-04T13:08:49;4.28;;;2.20;;
10851;SDS011;5479;52.046;6.314;2023-06-04T13:11:19;5.03;;;2.20;;
10851;SDS011;5479;52.046;6.314;2023-06-04T13:13:46;5.50;;;2.00;;
10851;SDS011;5479;52.046;6.314;2023-06-04T13:16:15;2.88;;;2.03;;
10851;SDS011;5479;52.046;6.314;2023-06-04T13:18:43;3.97;;;1.90;;
10851;SDS011;5479;52.046;6.314;2023-06-04T13:21:11;3.72;;;2.13;;
10851;SDS011;5479;52.046;6.314;2023-06-04T13:23:40;4.28;;;2.10;;
10851;SDS011;5479;52.046;6.314;2023-06-04T13:26:08;3.97;;;2.08;;
10851;SDS011;5479;52.046;6.314;2023-06-04T13:28:38;4.80;;;2.63;;
10851;SDS011;5479;52.046;6.314;2023-06-04T13:31:07;4.55;;;2.13;;
10851;SDS011;5479;52.046;6.314;2023-06-04T13:33:36;4.32;;;2.33;;
10851;SDS011;5479;52.046;6.314;2023-06-04T13:36:04;4.18;;;2.20;;
10851;SDS011;5479;52.046;6.314;2023-06-04T13:38:35;3.75;;;2.30;;
10851;SDS011;5479;52.046;6.314;2023-06-04T13:41:03;3.97;;;2.17;;
10851;SDS011;5479;52.046;6.314;2023-06-04T13:43:31;3.97;;;2.30;;
10851;SDS011;5479;52.046;6.314;2023-06-04T13:46:03;4.50;;;2.35;;
10851;SDS011;5479;52.046;6.314;2023-06-04T13:48:31;3.75;;;2.40;;
10851;SDS011;5479;52.046;6.314;2023-06-04T13:50:59;2.97;;;2.00;;
10851;SDS011;5479;52.046;6.314;2023-06-04T13:53:28;4.38;;;2.20;;
10851;SDS011;5479;52.046;6.314;2023-06-04T13:55:55;4.53;;;2.25;;
10851;SDS011;5479;52.046;6.314;2023-06-04T13:58:25;4.40;;;2.10;;
10851;SDS011;5479;52.046;6.314;2023-06-04T14:00:53;4.80;;;2.13;;
10851;SDS011;5479;52.046;6.314;2023-06-04T14:03:23;3.78;;;2.10;;
10851;SDS011;5479;52.046;6.314;2023-06-04T14:05:51;5.00;;;2.47;;
10851;SDS011;5479;52.046;6.314;2023-06-04T14:08:19;3.63;;;1.90;;
10851;SDS011;5479;52.046;6.314;2023-06-04T14:10:47;4.28;;;2.13;;
10851;SDS011;5479;52.046;6.314;2023-06-04T14:13:15;3.95;;;2.20;;
10851;SDS011;5479;52.046;6.314;2023-06-04T14:15:43;3.17;;;1.90;;
10851;SDS011;5479;52.046;6.314;2023-06-04T14:18:12;3.65;;;2.20;;
10851;SDS011;5479;52.046;6.314;2023-06-04T14:20:41;7.82;;;2.85;;
10851;SDS011;5479;52.046;6.314;2023-06-04T14:23:10;4.35;;;2.20;;
10851;SDS011;5479;52.046;6.314;2023-06-04T14:25:38;5.82;;;2.20;;
10851;SDS011;5479;52.046;6.314;2023-06-04T14:28:06;4.63;;;2.33;;
10851;SDS011;5479;52.046;6.314;2023-06-04T14:30:34;3.95;;;2.03;;
10851;SDS011;5479;52.046;6.314;2023-06-04T14:33:02;6.00;;;2.42;;
10851;SDS011;5479;52.046;6.314;2023-06-04T14:35:29;3.17;;;1.83;;
10851;SDS011;5479;52.046;6.314;2023-06-04T14:37:59;4.38;;;2.10;;
10851;SDS011;5479;52.046;6.314;2023-06-04T14:40:27;4.10;;;1.90;;
10851;SDS011;5479;52.046;6.314;2023-06-04T14:42:55;4.68;;;2.60;;
10851;SDS011;5479;52.046;6.314;2023-06-04T14:45:23;3.67;;;2.25;;
10851;SDS011;5479;52.046;6.314;2023-06-04T14:47:52;5.57;;;2.22;;
10851;SDS011;5479;52.046;6.314;2023-06-04T14:50:20;3.80;;;1.98;;
10851;SDS011;5479;52.046;6.314;2023-06-04T14:52:49;4.78;;;2.22;;
10851;SDS011;5479;52.046;6.314;2023-06-04T14:55:18;3.92;;;2.30;;
10851;SDS011;5479;52.046;6.314;2023-06-04T14:57:46;2.97;;;2.03;;
10851;SDS011;5479;52.046;6.314;2023-06-04T15:00:16;4.82;;;2.22;;
10851;SDS011;5479;52.046;6.314;2023-06-04T15:02:46;4.90;;;2.30;;
10851;SDS011;5479;52.046;6.314;2023-06-04T15:05:14;3.00;;;1.65;;
10851;SDS011;5479;52.046;6.314;2023-06-04T15:07:42;5.22;;;2.20;;
10851;SDS011;5479;52.046;6.314;2023-06-04T15:10:10;2.88;;;1.92;;
10851;SDS011;5479;52.046;6.314;2023-06-04T15:12:39;5.03;;;2.28;;
10851;SDS011;5479;52.046;6.314;2023-06-04T15:15:08;5.57;;;2.65;;